Holder, FL (34445)

5:53 PM EDT on August 01, 2015 (GMT -0400)
Vintage Garage | | Change Station
CLOSE
Current Station
Personal Weather Station
Location: Beverly Hills, FL
Elevation: 115 ft
Nearby Weather Stations
Active Advisory: Areal Flood Watch Active Notice: Record Report

Elev 115 ft 28.93 °N, 82.46 °W | Updated 6 seconds ago

Rain
Rain
72.9 °F
Feels Like 72.9 °F
N
5.0
Wind Variable Wind from South

Today
High -- | Low -- °F
--% Chance of Precip.
Yesterday
High -- | Low -- °F
Precip. -- in
6:50 AM 8:21 PM
Full, 97% visible
Pressure 29.92 in
Visibility 7.0 miles
Clouds Scattered Clouds 1800 ft
Mostly Cloudy 3800 ft
Overcast 4500 ft
Dew Point 72 °F
Humidity 100%
Rainfall -999.00 in
Snow Depth Not available.
UV 2 out of 12
Pollen .60 out of 12
Air Quality Not available.
Flu Activity Not available.
METAR KCGC 012135Z AUTO 18003KT 7SM -RA SCT018 BKN038 OVC045 23/23 A2992 RMK AO2 LTG DSNT NW P0001

More Conditions Fewer Conditions

Pressure 29.92 in
Visibility 7.0 miles
Clouds Scattered Clouds 1800 ft
Mostly Cloudy 3800 ft
Overcast 4500 ft
Dew Point 72 °F
Humidity 100%
Rainfall -999.00 in
Snow Depth Not available.
UV 2 out of 12
Pollen .60 out of 12
Air Quality Not available.
Flu Activity Not available.
METAR KCGC 012135Z AUTO 18003KT 7SM -RA SCT018 BKN038 OVC045 23/23 A2992 RMK AO2 LTG DSNT NW P0001

More Conditions Fewer Conditions

10-Day Weather Forecast

×

Almanac

Astronomy

Aug. 01, 2015 Rise Set
Actual Time
Civil Twilight
Nautical Twilight
Astronomical Twilight
Moon
Length of Visible Light
Length of Day
Tomorrow will be .
, % of the Moon is Illuminated

Today's Extremes

State Highs State Lows

Community

WunderPhotos

Upload Photos

1,843,080 photos uploaded!

WunderBlogs® & News

Nearby

Air Quality

  Air Quality AQ Index Pollutant
Not available.

Snow Depth

Station Depth Elevation

Earthquake Activity

City Distance Mag. Time & Date
Minimum magnitude displayed is 2.5.

Coastal Water Temperatures

Place Temperature

Stations

Nearby Weather Stations

Station Location Temp. Windchill Dew Point Humidity Wind Precip. Elev Updated Type
                   
Areal Flood Watch
Statement as of 1:57 PM EDT on August 01, 2015

... Flood Watch remains in effect through Sunday evening...

The Flood Watch continues for

* a portion of FL... including the following coastal Citrus... ...
coastal Hernando... coastal Levy... inland Citrus... inland
Hernando and inland Levy.

* Through Sunday evening

* the potential for excessive rainfall through Sunday with
localized accumulation totals exceeding 6 inches.

* Saturated soils and the potential for additional heavy rainfall
through Sunday will increase the risk of areal and street
flooding. If possible... clear drainage systems of any debris
which may become clogged in flooding rains.

Precautionary/preparedness actions...

A Flood Watch means that flooding is possible during the next
24 to 36 hours. Residents living in flood prone areas should take
action to protect property.